createdAt,value
2023-06-30T00:01:05.123Z,7.40
2023-06-30T00:03:46.833Z,8.80
2023-06-30T00:06:15.426Z,7.80
2023-06-30T00:08:43.079Z,8.60
2023-06-30T00:11:10.935Z,6.40
2023-06-30T00:13:38.644Z,8.20
2023-06-30T00:16:06.386Z,9.20
2023-06-30T00:18:34.118Z,7.40
2023-06-30T00:21:02.526Z,8.70
2023-06-30T00:23:30.201Z,9.00
2023-06-30T00:25:57.857Z,9.10
2023-06-30T00:28:25.538Z,6.70
2023-06-30T00:30:53.222Z,8.30
2023-06-30T00:33:20.937Z,7.00
2023-06-30T00:35:48.565Z,6.60
2023-06-30T00:38:16.363Z,6.80
2023-06-30T00:40:44.090Z,8.10
2023-06-30T00:43:11.885Z,8.50
2023-06-30T00:45:39.705Z,6.80
2023-06-30T00:48:07.570Z,7.90
2023-06-30T00:50:37.992Z,9.00
2023-06-30T00:53:05.657Z,7.10
2023-06-30T00:55:33.478Z,5.70
2023-06-30T00:58:01.148Z,6.50
2023-06-30T01:00:28.773Z,7.70
2023-06-30T01:03:02.685Z,6.10
2023-06-30T01:05:55.769Z,8.10
2023-06-30T01:08:26.585Z,5.20
2023-06-30T01:10:54.432Z,6.40
2023-06-30T01:13:22.254Z,6.80
2023-06-30T01:15:50.113Z,6.70
2023-06-30T01:18:21.020Z,7.40
2023-06-30T01:20:49.452Z,6.10
2023-06-30T01:23:18.782Z,7.70
2023-06-30T01:25:47.527Z,9.90
2023-06-30T01:28:15.377Z,6.70
2023-06-30T01:30:43.235Z,6.80
2023-06-30T01:33:11.838Z,10.10
2023-06-30T01:35:39.507Z,7.50
2023-06-30T01:38:07.282Z,9.20
2023-06-30T01:40:34.926Z,6.00
2023-06-30T01:43:02.563Z,8.70
2023-06-30T01:45:30.293Z,10.90
2023-06-30T01:47:58.214Z,7.10
2023-06-30T01:50:29.439Z,7.30
2023-06-30T01:52:58.325Z,7.00
2023-06-30T01:55:27.142Z,8.10
2023-06-30T01:57:54.805Z,6.00
2023-06-30T02:00:22.507Z,7.80
2023-06-30T02:02:50.302Z,6.60
2023-06-30T02:05:18.175Z,6.10
2023-06-30T02:07:46.031Z,6.00
2023-06-30T02:10:14.261Z,10.10
2023-06-30T02:12:41.949Z,5.80
2023-06-30T02:15:10.413Z,6.30
2023-06-30T02:17:38.294Z,5.00
2023-06-30T02:20:07.527Z,7.70
2023-06-30T02:22:35.309Z,6.30
2023-06-30T02:25:03.231Z,6.30
2023-06-30T02:27:33.076Z,7.00
2023-06-30T02:30:06.265Z,6.80
2023-06-30T02:32:39.237Z,7.80
2023-06-30T02:35:08.277Z,6.40
2023-06-30T02:37:36.703Z,6.50
2023-06-30T02:40:05.799Z,5.10
2023-06-30T02:42:33.509Z,10.30
2023-06-30T02:45:01.499Z,6.20
2023-06-30T02:47:29.216Z,6.50
2023-06-30T02:49:56.978Z,6.20
2023-06-30T02:52:24.744Z,7.30
2023-06-30T02:54:52.373Z,9.80
2023-06-30T02:57:20.627Z,7.40
2023-06-30T02:59:48.371Z,7.80
2023-06-30T03:02:16.426Z,9.60
2023-06-30T03:04:44.336Z,7.90
2023-06-30T03:07:12.280Z,9.50
2023-06-30T03:09:39.951Z,6.10
2023-06-30T03:12:08.222Z,9.30
2023-06-30T03:14:36.071Z,12.10
2023-06-30T03:17:04.066Z,9.10
2023-06-30T03:19:31.839Z,9.00
2023-06-30T03:22:00.144Z,9.80
2023-06-30T03:24:27.776Z,7.70
2023-06-30T03:26:55.624Z,10.30
2023-06-30T03:29:23.527Z,10.50
2023-06-30T03:31:51.271Z,12.60
2023-06-30T03:34:18.962Z,9.40
2023-06-30T03:36:46.616Z,12.00
2023-06-30T03:39:14.630Z,11.90
2023-06-30T03:41:42.742Z,15.60
2023-06-30T03:44:12.348Z,15.80
2023-06-30T03:46:40.023Z,14.60
2023-06-30T03:49:07.742Z,14.10
2023-06-30T03:51:35.480Z,11.50
2023-06-30T03:54:03.249Z,13.80
2023-06-30T03:56:31.074Z,16.50
2023-06-30T03:58:58.746Z,22.30
2023-06-30T04:01:27.328Z,17.60
2023-06-30T04:03:55.342Z,17.40
2023-06-30T04:06:23.355Z,16.60
2023-06-30T04:08:51.113Z,17.10
2023-06-30T04:11:18.893Z,17.80
2023-06-30T04:13:47.965Z,15.80
2023-06-30T04:16:15.643Z,14.10
2023-06-30T04:18:43.274Z,17.30
2023-06-30T04:21:11.398Z,22.20
2023-06-30T04:23:39.034Z,13.80
2023-06-30T04:26:06.680Z,12.30
2023-06-30T04:28:34.385Z,10.20
2023-06-30T04:31:04.607Z,13.10
2023-06-30T04:33:33.859Z,8.30
2023-06-30T04:36:02.028Z,10.90
2023-06-30T04:38:29.799Z,11.00
2023-06-30T04:40:57.811Z,11.70
2023-06-30T04:43:25.760Z,13.40
2023-06-30T04:45:53.844Z,8.70
2023-06-30T04:48:21.549Z,9.50
2023-06-30T04:50:49.474Z,10.20
2023-06-30T04:53:17.322Z,10.10
2023-06-30T04:55:45.311Z,11.10
2023-06-30T04:58:13.479Z,16.00
2023-06-30T05:00:41.980Z,10.40
2023-06-30T05:03:09.966Z,10.30
2023-06-30T05:05:37.913Z,9.70
2023-06-30T05:08:06.076Z,7.40
2023-06-30T05:10:33.820Z,9.30
2023-06-30T05:13:01.505Z,9.60
2023-06-30T05:15:29.430Z,8.90
2023-06-30T05:17:57.151Z,8.10
2023-06-30T05:20:24.840Z,8.60
2023-06-30T05:22:52.517Z,6.30
2023-06-30T05:25:20.169Z,10.10
2023-06-30T05:27:47.937Z,7.20
2023-06-30T05:30:15.827Z,7.60
2023-06-30T05:32:43.503Z,7.20
2023-06-30T05:35:11.239Z,6.40
2023-06-30T05:37:38.892Z,9.50
2023-06-30T05:40:07.219Z,7.10
2023-06-30T05:42:34.869Z,11.90
2023-06-30T05:45:02.736Z,7.40
2023-06-30T05:47:30.427Z,10.90
2023-06-30T05:49:58.138Z,9.00
2023-06-30T05:52:26.391Z,7.00
2023-06-30T05:54:54.233Z,6.00
2023-06-30T05:57:22.073Z,6.00
2023-06-30T05:59:49.849Z,8.10
2023-06-30T06:02:17.589Z,8.20
2023-06-30T06:04:45.528Z,8.40
2023-06-30T06:07:13.469Z,8.50
2023-06-30T06:09:41.192Z,8.00
2023-06-30T06:12:10.708Z,10.00
2023-06-30T06:14:38.359Z,6.40
2023-06-30T06:17:06.395Z,7.70
2023-06-30T06:19:34.162Z,8.00
2023-06-30T06:22:02.144Z,6.50
2023-06-30T06:24:29.831Z,8.90
2023-06-30T06:26:57.505Z,9.10
2023-06-30T06:29:25.534Z,6.50
2023-06-30T06:31:53.341Z,5.80
2023-06-30T06:34:21.356Z,7.90
2023-06-30T06:36:49.294Z,5.70
2023-06-30T06:39:17.031Z,7.00
2023-06-30T06:41:46.111Z,9.70
2023-06-30T06:44:13.910Z,11.10
2023-06-30T06:46:42.149Z,6.80
2023-06-30T06:49:10.547Z,9.40
2023-06-30T06:51:38.242Z,8.60
2023-06-30T06:54:06.108Z,8.00
2023-06-30T06:56:33.865Z,8.80
2023-06-30T06:59:01.521Z,7.80
2023-06-30T07:01:29.294Z,9.60
2023-06-30T07:03:57.029Z,7.70
2023-06-30T07:06:24.686Z,5.70
2023-06-30T07:08:52.514Z,7.80
2023-06-30T07:11:20.154Z,10.10
2023-06-30T07:13:47.820Z,6.70
2023-06-30T07:16:19.113Z,8.20
2023-06-30T07:18:47.139Z,7.50
2023-06-30T07:21:14.841Z,6.90
2023-06-30T07:23:42.504Z,6.30
2023-06-30T07:26:10.867Z,7.20
2023-06-30T07:28:38.532Z,5.90
2023-06-30T07:31:06.412Z,7.60
2023-06-30T07:33:34.161Z,6.90
2023-06-30T07:36:01.813Z,6.10
2023-06-30T07:38:29.480Z,5.40
2023-06-30T07:40:57.902Z,8.80
2023-06-30T07:43:26.806Z,6.30
2023-06-30T07:45:54.581Z,9.40
2023-06-30T07:48:22.585Z,7.30
2023-06-30T07:51:03.323Z,6.80
2023-06-30T07:53:36.678Z,7.30
2023-06-30T07:56:04.593Z,7.10
2023-06-30T07:58:32.542Z,6.40
2023-06-30T08:01:00.434Z,8.00
2023-06-30T08:03:28.289Z,5.50
2023-06-30T08:05:57.759Z,6.40
2023-06-30T08:08:25.679Z,4.90
2023-06-30T08:10:53.324Z,6.30
2023-06-30T08:13:20.980Z,4.80
2023-06-30T08:15:49.780Z,5.20
2023-06-30T08:18:31.548Z,5.90
2023-06-30T08:21:02.501Z,6.50
2023-06-30T08:23:30.313Z,6.10
2023-06-30T08:25:57.991Z,6.10
2023-06-30T08:28:25.652Z,5.30
2023-06-30T08:30:53.444Z,5.30
2023-06-30T08:36:01.081Z,7.50
2023-06-30T08:38:28.853Z,6.80
2023-06-30T08:40:56.572Z,6.20
2023-06-30T08:43:24.312Z,5.90
2023-06-30T08:45:54.185Z,4.80
2023-06-30T08:48:21.941Z,5.70
2023-06-30T08:50:50.886Z,5.70
2023-06-30T08:53:18.612Z,7.50
2023-06-30T08:55:47.437Z,4.90
2023-06-30T08:58:25.547Z,7.50
2023-06-30T09:00:54.848Z,6.30
2023-06-30T09:03:22.984Z,4.10
2023-06-30T09:05:55.932Z,6.00
2023-06-30T09:08:25.105Z,5.20
2023-06-30T09:10:52.862Z,4.40
2023-06-30T09:13:22.297Z,9.00
2023-06-30T09:15:50.219Z,7.80
2023-06-30T09:18:18.002Z,4.80
2023-06-30T09:20:45.722Z,6.30
2023-06-30T09:23:13.382Z,6.30
2023-06-30T09:25:41.357Z,7.40
2023-06-30T09:28:11.608Z,5.30
2023-06-30T09:30:41.919Z,6.40
2023-06-30T09:33:10.059Z,11.00
2023-06-30T09:35:39.652Z,7.30
2023-06-30T09:38:11.061Z,8.20
2023-06-30T09:40:38.829Z,5.50
2023-06-30T09:43:07.598Z,8.00
2023-06-30T09:45:35.858Z,5.80
2023-06-30T09:48:05.347Z,7.80
2023-06-30T09:50:35.011Z,7.30
2023-06-30T09:53:02.667Z,4.70
2023-06-30T09:55:30.340Z,5.20
2023-06-30T09:57:58.164Z,5.50
2023-06-30T10:00:36.499Z,4.20
2023-06-30T10:03:06.923Z,5.40
2023-06-30T10:05:34.888Z,5.80
2023-06-30T10:08:02.608Z,4.40
2023-06-30T10:10:30.423Z,4.10
2023-06-30T10:13:01.085Z,3.50
2023-06-30T10:15:28.796Z,4.50
2023-06-30T10:17:58.503Z,4.00
2023-06-30T10:20:34.458Z,5.90
2023-06-30T10:23:14.482Z,4.90
2023-06-30T10:25:42.173Z,5.80
2023-06-30T10:28:09.933Z,4.20
2023-06-30T10:30:37.836Z,5.80
2023-06-30T10:33:05.657Z,4.40
2023-06-30T10:35:33.672Z,4.30
2023-06-30T10:38:01.373Z,5.80
2023-06-30T10:40:30.838Z,6.00
2023-06-30T10:42:59.166Z,4.10
2023-06-30T10:45:31.881Z,4.30
2023-06-30T10:47:59.745Z,3.70
2023-06-30T10:50:27.443Z,5.40
2023-06-30T10:52:55.303Z,5.60
2023-06-30T10:55:24.089Z,6.10
2023-06-30T10:57:52.913Z,4.40
2023-06-30T11:00:22.956Z,4.00
2023-06-30T11:02:54.200Z,4.90
2023-06-30T11:05:32.019Z,13.20
2023-06-30T11:08:03.074Z,5.30
2023-06-30T11:13:10.370Z,6.40
2023-06-30T11:15:51.579Z,5.80
2023-06-30T11:18:22.695Z,4.30
2023-06-30T11:21:04.502Z,3.50
2023-06-30T11:23:40.123Z,6.80
2023-06-30T11:26:16.120Z,4.10
2023-06-30T11:28:45.556Z,4.00
2023-06-30T11:31:13.515Z,4.30
2023-06-30T11:33:44.717Z,4.60
2023-06-30T11:36:19.325Z,5.40
2023-06-30T11:38:51.603Z,4.40
2023-06-30T11:41:20.326Z,4.60
2023-06-30T11:43:51.957Z,5.50
2023-06-30T11:46:19.738Z,5.40
2023-06-30T11:48:48.514Z,5.30
2023-06-30T11:51:17.606Z,3.40
2023-06-30T11:53:48.254Z,5.80
2023-06-30T11:56:19.843Z,4.70
2023-06-30T11:58:51.270Z,4.90
2023-06-30T12:01:21.446Z,6.10
2023-06-30T12:04:00.575Z,4.90
2023-06-30T12:06:29.522Z,4.60
2023-06-30T12:08:58.534Z,3.40
2023-06-30T12:11:26.206Z,3.90
2023-06-30T12:13:53.857Z,4.60
2023-06-30T12:16:21.889Z,6.40
2023-06-30T12:18:49.558Z,6.30
2023-06-30T12:21:17.207Z,3.90
2023-06-30T12:23:45.209Z,4.10
2023-06-30T12:26:13.277Z,3.60
2023-06-30T12:28:42.448Z,3.40
2023-06-30T12:31:10.251Z,2.70
2023-06-30T12:33:38.305Z,5.70
2023-06-30T12:36:07.531Z,4.20
2023-06-30T12:38:35.313Z,3.10
2023-06-30T12:41:04.375Z,3.90
2023-06-30T12:43:34.397Z,3.20
2023-06-30T12:46:02.426Z,6.00
2023-06-30T12:48:30.218Z,4.10
2023-06-30T12:50:59.129Z,5.00
2023-06-30T12:53:26.901Z,5.00
2023-06-30T12:55:54.711Z,2.80
2023-06-30T12:58:22.472Z,3.10
2023-06-30T13:00:54.348Z,4.80
2023-06-30T13:03:22.110Z,6.50
2023-06-30T13:05:52.139Z,5.70
2023-06-30T13:08:19.851Z,4.90
2023-06-30T13:10:49.516Z,6.00
2023-06-30T13:13:18.431Z,2.90
2023-06-30T13:15:46.267Z,3.50
2023-06-30T13:18:16.036Z,3.40
2023-06-30T13:20:45.950Z,3.50
2023-06-30T13:23:20.449Z,2.80
2023-06-30T13:25:59.700Z,5.90
2023-06-30T13:28:27.365Z,3.90
2023-06-30T13:30:55.030Z,3.60
2023-06-30T13:33:23.092Z,3.30
2023-06-30T13:35:50.770Z,3.20
2023-06-30T13:38:19.294Z,4.30
2023-06-30T13:40:47.259Z,8.60
2023-06-30T13:43:15.601Z,3.80
2023-06-30T13:45:43.828Z,3.70
2023-06-30T13:48:11.768Z,3.20
2023-06-30T13:50:39.944Z,3.40
2023-06-30T13:53:07.669Z,4.30
2023-06-30T13:55:36.344Z,3.70
2023-06-30T13:58:04.265Z,3.20
2023-06-30T14:00:32.047Z,3.70
2023-06-30T14:02:59.882Z,4.60
2023-06-30T14:05:27.846Z,4.70
2023-06-30T14:07:55.856Z,3.30
2023-06-30T14:10:23.532Z,3.60
2023-06-30T14:12:51.246Z,7.40
2023-06-30T14:15:20.810Z,4.90
2023-06-30T14:17:48.884Z,3.00
2023-06-30T14:20:16.604Z,4.50
2023-06-30T14:22:44.227Z,4.40
2023-06-30T14:25:20.388Z,3.50
2023-06-30T14:27:48.346Z,3.40
2023-06-30T14:30:16.324Z,5.20
2023-06-30T14:32:44.311Z,4.30
2023-06-30T14:35:12.344Z,4.70
2023-06-30T14:37:40.006Z,3.90
2023-06-30T14:40:08.222Z,5.90
2023-06-30T14:42:35.940Z,4.00
2023-06-30T14:45:04.699Z,3.80
2023-06-30T14:47:32.461Z,3.40
2023-06-30T14:50:00.139Z,7.10
2023-06-30T14:52:27.796Z,4.70
2023-06-30T14:54:55.608Z,3.00
2023-06-30T14:57:23.783Z,6.60
2023-06-30T14:59:51.417Z,3.40
2023-06-30T15:02:20.240Z,4.70
2023-06-30T15:04:49.677Z,4.20
2023-06-30T15:07:17.442Z,4.70
2023-06-30T15:09:45.136Z,3.20
2023-06-30T15:12:12.882Z,4.60
2023-06-30T15:14:40.637Z,3.10
2023-06-30T15:17:08.282Z,4.90
2023-06-30T15:19:36.156Z,4.20
2023-06-30T15:22:03.862Z,3.90
2023-06-30T15:24:31.686Z,5.20
2023-06-30T15:26:59.347Z,5.40
2023-06-30T15:29:27.011Z,4.60
2023-06-30T15:31:55.439Z,4.30
2023-06-30T15:34:23.347Z,4.70
2023-06-30T15:36:51.026Z,8.60
2023-06-30T15:39:18.691Z,4.70
2023-06-30T15:41:46.323Z,4.10
2023-06-30T15:44:14.000Z,4.70
2023-06-30T15:46:41.885Z,5.20
2023-06-30T15:49:09.612Z,4.40
2023-06-30T15:51:37.403Z,5.60
2023-06-30T15:54:05.370Z,5.90
2023-06-30T15:56:33.264Z,4.50
2023-06-30T15:59:01.326Z,7.20
2023-06-30T16:01:30.011Z,6.40
2023-06-30T16:03:57.823Z,36.30
2023-06-30T16:06:25.795Z,4.90
2023-06-30T16:08:53.621Z,4.60
2023-06-30T16:11:21.382Z,4.00
2023-06-30T16:13:49.033Z,4.10
2023-06-30T16:16:16.749Z,4.80
2023-06-30T16:18:45.561Z,4.60
2023-06-30T16:21:13.240Z,3.40
2023-06-30T16:23:41.117Z,4.60
2023-06-30T16:26:09.082Z,4.20
2023-06-30T16:28:37.052Z,3.80
2023-06-30T16:31:05.161Z,5.10
2023-06-30T16:33:33.049Z,5.20
2023-06-30T16:36:00.853Z,3.40
2023-06-30T16:38:29.053Z,4.20
2023-06-30T16:40:56.764Z,6.30
2023-06-30T16:43:25.317Z,6.50
2023-06-30T16:45:55.296Z,4.60
2023-06-30T16:48:23.058Z,3.70
2023-06-30T16:50:50.660Z,4.60
2023-06-30T16:53:18.770Z,4.00
2023-06-30T16:55:46.868Z,4.20
2023-06-30T16:58:15.178Z,3.90
2023-06-30T17:00:43.189Z,4.30
2023-06-30T17:03:11.169Z,4.50
2023-06-30T17:05:38.880Z,4.00
2023-06-30T17:08:06.817Z,4.10
2023-06-30T17:10:34.579Z,3.70
2023-06-30T17:13:04.394Z,5.10
2023-06-30T17:15:32.716Z,5.00
2023-06-30T17:18:00.424Z,6.10
2023-06-30T17:20:29.051Z,4.60
2023-06-30T17:22:56.945Z,5.50
2023-06-30T17:25:24.645Z,6.00
2023-06-30T17:27:52.316Z,5.40
2023-06-30T17:30:20.286Z,7.00
2023-06-30T17:32:48.106Z,7.40
2023-06-30T17:35:15.915Z,5.90
2023-06-30T17:37:43.569Z,4.30
2023-06-30T17:40:11.669Z,5.00
2023-06-30T17:42:39.340Z,4.30
2023-06-30T17:45:07.500Z,6.30
2023-06-30T17:47:35.164Z,5.10
2023-06-30T17:50:03.032Z,4.60
2023-06-30T17:52:31.031Z,6.20
2023-06-30T17:54:58.783Z,5.70
2023-06-30T17:57:26.404Z,4.30
2023-06-30T17:59:54.154Z,6.90
2023-06-30T18:02:22.016Z,4.50
2023-06-30T18:04:50.290Z,4.00
2023-06-30T18:07:19.552Z,5.00
2023-06-30T18:09:47.912Z,5.40
2023-06-30T18:12:15.695Z,6.30
2023-06-30T18:14:43.927Z,5.70
2023-06-30T18:17:11.734Z,5.40
2023-06-30T18:19:40.235Z,6.80
2023-06-30T18:22:08.999Z,4.80
2023-06-30T18:24:36.677Z,8.80
2023-06-30T18:27:04.874Z,3.90
2023-06-30T18:29:32.769Z,4.50
2023-06-30T18:32:00.993Z,5.20
2023-06-30T18:34:28.950Z,5.70
2023-06-30T18:36:56.639Z,5.10
2023-06-30T18:39:24.297Z,6.00
2023-06-30T18:41:51.970Z,8.20
2023-06-30T18:44:19.821Z,4.60
2023-06-30T18:46:48.332Z,6.10
2023-06-30T18:49:16.084Z,5.80
2023-06-30T18:51:44.110Z,3.90
2023-06-30T18:54:12.002Z,5.20
2023-06-30T18:56:39.644Z,6.90
2023-06-30T18:59:07.505Z,5.30
2023-06-30T19:01:35.304Z,4.70
2023-06-30T19:04:03.451Z,6.10
2023-06-30T19:06:31.457Z,5.40
2023-06-30T19:08:59.466Z,8.30
2023-06-30T19:11:27.139Z,7.00
2023-06-30T19:13:54.775Z,4.10
2023-06-30T19:16:22.454Z,4.70
2023-06-30T19:18:50.743Z,5.30
2023-06-30T19:21:18.422Z,5.00
2023-06-30T19:23:46.055Z,5.20
2023-06-30T19:26:13.838Z,4.40
2023-06-30T19:28:41.873Z,4.40
2023-06-30T19:31:09.646Z,4.90
2023-06-30T19:33:38.154Z,4.00
2023-06-30T19:36:06.359Z,5.50
2023-06-30T19:38:34.215Z,4.90
2023-06-30T19:41:01.953Z,5.40
2023-06-30T19:43:29.831Z,7.10
2023-06-30T19:45:57.517Z,4.70
2023-06-30T19:48:25.187Z,5.20
2023-06-30T19:50:53.047Z,6.10
2023-06-30T19:53:20.773Z,3.90
2023-06-30T19:55:49.199Z,7.90
2023-06-30T19:58:17.215Z,6.70
2023-06-30T20:00:44.945Z,6.10
2023-06-30T20:03:12.875Z,5.10
2023-06-30T20:05:40.585Z,5.70
2023-06-30T20:08:08.252Z,5.60
2023-06-30T20:10:35.879Z,5.10
2023-06-30T20:13:04.487Z,7.10
2023-06-30T20:15:33.335Z,5.00
2023-06-30T20:18:01.082Z,5.40
2023-06-30T20:20:29.089Z,5.90
2023-06-30T20:22:56.821Z,4.20
2023-06-30T20:25:24.794Z,4.40
2023-06-30T20:27:52.868Z,5.00
2023-06-30T20:30:21.249Z,5.10
2023-06-30T20:32:48.921Z,6.00
2023-06-30T20:35:20.075Z,4.70
2023-06-30T20:37:47.959Z,5.50
2023-06-30T20:40:15.930Z,5.50
2023-06-30T20:42:43.866Z,5.40
2023-06-30T20:45:11.588Z,6.50
2023-06-30T20:47:40.235Z,4.50
2023-06-30T20:50:09.420Z,5.80
2023-06-30T20:52:37.371Z,7.60
2023-06-30T20:55:05.583Z,6.60
2023-06-30T20:57:33.396Z,5.80
2023-06-30T21:00:01.070Z,8.30
2023-06-30T21:02:28.939Z,6.70
2023-06-30T21:04:59.011Z,7.40
2023-06-30T21:07:26.865Z,5.20
2023-06-30T21:09:54.484Z,6.50
2023-06-30T21:12:22.162Z,4.90
2023-06-30T21:14:50.010Z,5.30
2023-06-30T21:17:18.465Z,6.30
2023-06-30T21:19:46.861Z,7.20
2023-06-30T21:22:14.633Z,7.20
2023-06-30T21:24:42.260Z,6.20
2023-06-30T21:27:11.339Z,6.90
2023-06-30T21:29:39.486Z,6.90
2023-06-30T21:32:08.252Z,5.40
2023-06-30T21:34:36.586Z,6.00
2023-06-30T21:37:04.581Z,7.60
2023-06-30T21:39:32.206Z,6.90
2023-06-30T21:41:59.928Z,7.60
2023-06-30T21:44:27.647Z,6.30
2023-06-30T21:46:55.291Z,9.50
2023-06-30T21:49:22.917Z,6.20
2023-06-30T21:51:50.685Z,7.70
2023-06-30T21:54:27.113Z,6.70
2023-06-30T21:56:59.224Z,7.40
2023-06-30T21:59:26.860Z,6.30
2023-06-30T22:01:54.533Z,6.50
2023-06-30T22:04:22.247Z,7.00
2023-06-30T22:06:49.968Z,10.80
2023-06-30T22:09:17.625Z,6.60
2023-06-30T22:11:45.421Z,7.80
2023-06-30T22:14:13.578Z,8.00
2023-06-30T22:16:41.636Z,7.90
2023-06-30T22:19:09.726Z,9.40
2023-06-30T22:21:37.406Z,6.90
2023-06-30T22:24:05.401Z,9.10
2023-06-30T22:26:33.014Z,7.40
2023-06-30T22:29:00.674Z,8.60
2023-06-30T22:31:28.452Z,7.90
2023-06-30T22:33:56.203Z,6.40
2023-06-30T22:36:23.839Z,6.30
2023-06-30T22:38:52.322Z,8.10
2023-06-30T22:41:20.315Z,7.20
2023-06-30T22:43:48.708Z,7.50
2023-06-30T22:46:16.323Z,7.50
2023-06-30T22:48:44.426Z,7.90
2023-06-30T22:51:12.860Z,6.70
2023-06-30T22:53:40.517Z,8.90
2023-06-30T22:56:08.365Z,7.40
2023-06-30T22:58:36.163Z,7.80
2023-06-30T23:01:03.888Z,7.40
2023-06-30T23:03:31.835Z,7.30
2023-06-30T23:05:59.588Z,7.00
2023-06-30T23:08:27.288Z,10.00
2023-06-30T23:10:54.980Z,7.10
2023-06-30T23:13:22.615Z,7.70
2023-06-30T23:15:50.279Z,8.40
2023-06-30T23:18:20.441Z,8.00
2023-06-30T23:20:48.734Z,9.10
2023-06-30T23:23:16.731Z,7.80
2023-06-30T23:25:44.575Z,7.60
2023-06-30T23:28:12.244Z,7.60
2023-06-30T23:30:41.175Z,10.40
2023-06-30T23:33:09.057Z,8.80
2023-06-30T23:35:36.767Z,11.50
2023-06-30T23:38:04.850Z,12.40
2023-06-30T23:40:32.554Z,11.10
2023-06-30T23:43:01.092Z,14.30
2023-06-30T23:45:28.737Z,14.80
2023-06-30T23:47:56.641Z,17.50
2023-06-30T23:50:24.298Z,18.70
2023-06-30T23:52:51.982Z,17.50
2023-06-30T23:55:22.272Z,20.40
2023-06-30T23:57:51.371Z,25.30
